createdAt,value
2022-10-17T00:02:12.632Z,9.0
2022-10-17T00:07:18.839Z,9.0
2022-10-17T00:12:25.055Z,10.0
2022-10-17T00:17:31.283Z,10.0
2022-10-17T00:22:37.466Z,9.5
2022-10-17T00:27:43.677Z,10.0
2022-10-17T00:32:49.881Z,10.0
2022-10-17T00:37:56.092Z,10.0
2022-10-17T00:43:02.299Z,10.0
2022-10-17T00:48:08.598Z,10.0
2022-10-17T00:53:14.717Z,10.0
2022-10-17T00:58:20.921Z,10.0
2022-10-17T01:03:26.172Z,10.0
2022-10-17T01:08:32.367Z,10.0
2022-10-17T01:13:37.604Z,10.0
2022-10-17T01:18:43.821Z,10.0
2022-10-17T01:23:49.043Z,10.0
2022-10-17T01:28:55.255Z,10.0
2022-10-17T01:34:01.472Z,10.5
2022-10-17T01:39:07.672Z,11.0
2022-10-17T01:44:13.900Z,11.0
2022-10-17T01:49:20.083Z,11.0
2022-10-17T01:54:26.299Z,11.0
2022-10-17T01:59:31.526Z,11.0
2022-10-17T02:04:37.753Z,11.0
2022-10-17T02:09:43.948Z,12.0
2022-10-17T02:14:50.157Z,11.0
2022-10-17T02:19:56.373Z,10.0
2022-10-17T02:25:02.585Z,11.0
2022-10-17T02:30:08.790Z,11.0
2022-10-17T02:35:14.989Z,11.0
2022-10-17T02:40:21.199Z,11.0
2022-10-17T02:45:27.408Z,11.0
2022-10-17T02:50:33.641Z,11.0
2022-10-17T02:55:39.838Z,11.0
2022-10-17T03:00:46.031Z,11.0
2022-10-17T03:05:52.246Z,11.0
2022-10-17T03:10:57.476Z,11.0
2022-10-17T03:16:03.680Z,11.0
2022-10-17T03:21:08.929Z,11.0
2022-10-17T03:26:15.143Z,11.0
2022-10-17T03:31:21.333Z,10.0
2022-10-17T03:36:27.546Z,11.0
2022-10-17T03:41:33.756Z,11.0
2022-10-17T03:46:39.959Z,11.0
2022-10-17T03:51:46.174Z,11.0
2022-10-17T03:56:52.419Z,11.0
2022-10-17T04:01:58.578Z,11.0
2022-10-17T04:07:04.795Z,11.0
2022-10-17T04:12:11.003Z,12.0
2022-10-17T04:17:17.213Z,11.0
2022-10-17T04:22:23.414Z,12.0
2022-10-17T04:27:29.627Z,12.0
2022-10-17T04:32:35.831Z,12.0
2022-10-17T04:37:42.044Z,11.0
2022-10-17T04:42:48.248Z,11.0
2022-10-17T04:47:54.501Z,12.0
2022-10-17T04:53:00.909Z,11.0
2022-10-17T04:58:06.879Z,11.0
2022-10-17T05:03:13.087Z,10.0
2022-10-17T05:08:18.313Z,10.0
2022-10-17T05:13:24.528Z,10.0
2022-10-17T05:18:29.757Z,10.0
2022-10-17T05:23:35.969Z,9.0
2022-10-17T05:28:42.227Z,9.0
2022-10-17T05:33:48.414Z,9.0
2022-10-17T05:38:54.592Z,10.0
2022-10-17T05:44:04.608Z,10.5
2022-10-17T05:49:19.488Z,9.0
2022-10-17T05:54:13.219Z,9.0
2022-10-17T05:59:19.435Z,9.0
2022-10-17T06:04:25.650Z,9.0
2022-10-17T06:09:31.860Z,8.0
2022-10-17T06:14:38.067Z,9.0
2022-10-17T06:19:44.262Z,9.0
2022-10-17T06:24:50.471Z,8.5
2022-10-17T06:29:56.701Z,9.0
2022-10-17T06:35:02.896Z,8.0
2022-10-17T06:40:09.098Z,9.0
2022-10-17T06:45:15.305Z,9.0
2022-10-17T06:50:21.517Z,9.0
2022-10-17T06:55:27.727Z,9.0
2022-10-17T07:00:34.128Z,8.0
2022-10-17T07:05:39.184Z,9.0
2022-10-17T07:10:45.384Z,9.0
2022-10-17T07:15:51.628Z,9.0
2022-10-17T07:20:57.800Z,9.0
2022-10-17T07:26:03.042Z,9.0
2022-10-17T07:31:09.252Z,9.0
2022-10-17T07:36:15.457Z,9.0
2022-10-17T07:41:22.089Z,9.0
2022-10-17T07:46:27.886Z,10.0
2022-10-17T07:51:34.206Z,9.0
2022-10-17T07:56:40.291Z,9.0
2022-10-17T08:01:46.497Z,9.0
2022-10-17T08:06:56.400Z,9.0
2022-10-17T08:11:58.911Z,9.0
2022-10-17T08:17:05.121Z,8.0
2022-10-17T08:22:11.335Z,8.0
2022-10-17T08:27:17.541Z,8.0
2022-10-17T08:32:23.748Z,8.0
2022-10-17T08:37:30.342Z,7.0
2022-10-17T08:42:36.163Z,7.0
2022-10-17T08:47:42.377Z,8.0
2022-10-17T08:52:48.581Z,8.0
2022-10-17T08:57:54.789Z,7.0
2022-10-17T09:03:01.064Z,7.0
2022-10-17T09:08:07.207Z,7.0
2022-10-17T09:13:12.448Z,6.0
2022-10-17T09:18:21.142Z,6.0
2022-10-17T09:23:24.863Z,6.0
2022-10-17T09:28:31.138Z,6.0
2022-10-17T09:33:53.286Z,6.0
2022-10-17T09:38:42.520Z,6.0
2022-10-17T09:43:48.728Z,7.0
2022-10-17T09:48:54.998Z,6.0
2022-10-17T09:54:01.135Z,7.0
2022-10-17T09:59:10.373Z,7.0
2022-10-17T10:04:13.561Z,7.0
2022-10-17T10:14:25.977Z,7.0
2022-10-17T10:19:32.183Z,7.0
2022-10-17T10:24:38.397Z,7.0
2022-10-17T10:29:44.598Z,7.0
2022-10-17T10:34:50.815Z,7.0
2022-10-17T10:39:57.016Z,8.0
2022-10-17T10:45:03.243Z,8.0
2022-10-17T10:50:09.436Z,8.0
2022-10-17T10:55:15.646Z,8.0
2022-10-17T11:00:21.890Z,8.0
2022-10-17T11:05:28.078Z,8.0
2022-10-17T11:10:34.274Z,7.0
2022-10-17T11:15:40.490Z,7.0
2022-10-17T11:20:46.689Z,7.0
2022-10-17T11:25:51.937Z,7.0
2022-10-17T11:30:58.130Z,9.0
2022-10-17T11:36:03.370Z,10.0
2022-10-17T11:41:09.577Z,10.0
2022-10-17T11:46:15.786Z,9.0
2022-10-17T11:56:28.201Z,10.0
2022-10-17T12:01:34.418Z,10.0
2022-10-17T12:06:40.624Z,10.0
2022-10-17T12:11:46.830Z,11.0
2022-10-17T12:16:53.036Z,11.0
2022-10-17T12:21:59.247Z,13.0
2022-10-17T12:27:05.475Z,13.0
2022-10-17T12:32:11.664Z,14.0
2022-10-17T12:37:17.886Z,15.0
2022-10-17T12:42:24.093Z,16.0
2022-10-17T12:47:30.812Z,15.0
2022-10-17T12:52:36.505Z,16.0
2022-10-17T12:57:42.714Z,16.0
2022-10-17T13:02:49.090Z,16.0
2022-10-17T13:07:55.128Z,16.0
2022-10-17T13:13:01.357Z,14.0
2022-10-17T13:18:07.566Z,13.0
2022-10-17T13:23:12.785Z,12.5
2022-10-17T13:28:18.988Z,12.0
2022-10-17T13:33:24.216Z,13.0
2022-10-17T13:38:30.437Z,13.0
2022-10-17T13:43:36.661Z,13.0
2022-10-17T13:48:42.847Z,12.0
2022-10-17T13:53:49.055Z,13.0
2022-10-17T13:58:55.278Z,13.0
2022-10-17T14:04:08.922Z,14.0
2022-10-17T14:09:07.689Z,13.0
2022-10-17T14:14:14.081Z,13.0
2022-10-17T14:19:20.106Z,14.0
2022-10-17T14:24:26.306Z,14.0
2022-10-17T14:29:32.515Z,14.0
2022-10-17T14:34:38.750Z,13.0
2022-10-17T14:39:44.943Z,13.0
2022-10-17T14:44:51.144Z,13.0
2022-10-17T14:49:57.368Z,12.0
2022-10-17T14:55:03.557Z,12.0
2022-10-17T15:00:09.777Z,12.0
2022-10-17T15:05:15.984Z,12.0
2022-10-17T15:10:22.210Z,12.0
2022-10-17T15:15:28.405Z,13.0
2022-10-17T15:20:33.628Z,13.0
2022-10-17T15:25:39.866Z,13.5
2022-10-17T15:30:45.145Z,14.0
2022-10-17T15:35:51.336Z,12.0
2022-10-17T15:40:57.494Z,12.0
2022-10-17T15:46:03.699Z,12.0
2022-10-17T15:51:09.959Z,12.5
2022-10-17T15:56:16.118Z,13.0
2022-10-17T16:01:22.434Z,14.0
2022-10-17T16:06:28.535Z,14.5
2022-10-17T16:11:34.745Z,16.0
2022-10-17T16:16:40.950Z,16.0
2022-10-17T16:21:47.166Z,16.0
2022-10-17T16:26:53.372Z,17.0
2022-10-17T16:31:59.580Z,17.0
2022-10-17T16:37:05.789Z,17.0
2022-10-17T16:42:11.993Z,17.0
2022-10-17T16:47:18.230Z,16.0
2022-10-17T16:52:24.409Z,16.0
2022-10-17T16:57:30.740Z,16.0
2022-10-17T17:02:36.874Z,16.0
2022-10-17T17:07:43.036Z,15.0
2022-10-17T17:12:49.258Z,15.0
2022-10-17T17:17:55.793Z,15.0
2022-10-17T17:23:00.688Z,15.0
2022-10-17T17:28:06.918Z,14.0
2022-10-17T17:33:13.109Z,15.0
2022-10-17T17:38:19.314Z,15.5
2022-10-17T17:43:25.525Z,15.0
2022-10-17T17:48:31.730Z,16.0
2022-10-17T17:53:37.933Z,15.0
2022-10-17T17:58:44.147Z,16.0
2022-10-17T18:03:50.358Z,16.0
2022-10-17T18:08:56.573Z,15.0
2022-10-17T18:14:02.785Z,15.5
2022-10-17T18:19:09.012Z,16.0
2022-10-17T18:24:15.195Z,15.0
2022-10-17T18:29:21.397Z,17.0
2022-10-17T18:34:27.610Z,16.0
2022-10-17T18:39:33.810Z,16.0
2022-10-17T18:44:40.031Z,16.0
2022-10-17T18:49:46.234Z,16.0
2022-10-17T18:54:52.444Z,16.0
2022-10-17T18:59:58.651Z,16.0
2022-10-17T19:05:03.916Z,17.0
2022-10-17T19:10:10.103Z,17.0
2022-10-17T19:15:15.349Z,17.0
2022-10-17T19:20:21.553Z,17.0
2022-10-17T19:25:27.761Z,17.5
2022-10-17T19:30:32.997Z,17.0
2022-10-17T19:35:39.208Z,17.0
2022-10-17T19:40:45.414Z,17.0
2022-10-17T19:45:51.623Z,17.0
2022-10-17T19:50:57.835Z,16.5
2022-10-17T19:56:04.040Z,16.0
2022-10-17T20:01:10.334Z,16.0
2022-10-17T20:06:16.465Z,16.0
2022-10-17T20:11:22.670Z,16.0
2022-10-17T20:16:28.867Z,15.0
2022-10-17T20:21:35.110Z,15.0
2022-10-17T20:26:41.310Z,14.0
2022-10-17T20:31:47.506Z,14.0
2022-10-17T20:36:53.707Z,14.0
2022-10-17T20:41:59.919Z,14.0
2022-10-17T20:47:11.888Z,13.0
2022-10-17T20:52:12.327Z,13.0
2022-10-17T20:57:18.543Z,13.0
2022-10-17T21:02:24.743Z,13.0
2022-10-17T21:07:31.212Z,12.0
2022-10-17T21:12:53.177Z,13.0
2022-10-17T21:17:42.399Z,13.0
2022-10-17T21:22:48.613Z,12.5
2022-10-17T21:27:54.819Z,12.0
2022-10-17T21:33:00.094Z,12.0
2022-10-17T21:38:06.260Z,12.0
2022-10-17T21:43:12.480Z,11.0
2022-10-17T21:48:18.704Z,11.0
2022-10-17T21:53:24.890Z,12.0
2022-10-17T21:58:31.100Z,12.0
2022-10-17T22:03:37.433Z,11.0
2022-10-17T22:08:43.517Z,11.0
2022-10-17T22:13:49.721Z,11.0
2022-10-17T22:18:55.924Z,12.0
2022-10-17T22:24:02.141Z,11.0
2022-10-17T22:29:08.351Z,12.0
2022-10-17T22:34:14.568Z,12.0
2022-10-17T22:39:20.760Z,12.0
2022-10-17T22:44:26.972Z,12.0
2022-10-17T22:49:33.181Z,11.5
2022-10-17T22:54:39.379Z,12.0
2022-10-17T22:59:45.590Z,12.0
2022-10-17T23:04:51.800Z,11.0
2022-10-17T23:09:58.016Z,11.0
2022-10-17T23:15:04.220Z,12.0
2022-10-17T23:20:09.463Z,12.0
2022-10-17T23:25:15.665Z,11.0
2022-10-17T23:30:20.893Z,11.0
2022-10-17T23:35:27.109Z,12.0
2022-10-17T23:40:33.318Z,11.0
2022-10-17T23:50:44.758Z,10.5
2022-10-17T23:55:50.965Z,11.0
